sensor_id;sensor_type;location;lat;lon;timestamp;pressure;altitude;pressure_sealevel;temperature;humidity
7662;BME280;30314;48.184;11.510;2022-07-22T00:01:37;96329.25;;;17.88;100.00
7662;BME280;30314;48.184;11.510;2022-07-22T00:04:09;96312.94;;;17.81;100.00
7662;BME280;30314;48.184;11.510;2022-07-22T00:06:37;96289.31;;;17.62;100.00
7662;BME280;30314;48.184;11.510;2022-07-22T00:09:04;96287.88;;;17.65;100.00
7662;BME280;30314;48.184;11.510;2022-07-22T00:11:35;96281.31;;;17.62;100.00
7662;BME280;30314;48.184;11.510;2022-07-22T00:14:03;96307.97;;;17.71;100.00
7662;BME280;30314;48.184;11.510;2022-07-22T00:16:31;96262.50;;;17.28;100.00
7662;BME280;30314;48.184;11.510;2022-07-22T00:18:59;96273.22;;;17.50;100.00
7662;BME280;30314;48.184;11.510;2022-07-22T00:21:27;96317.88;;;17.70;100.00
7662;BME280;30314;48.184;11.510;2022-07-22T00:23:55;96276.84;;;17.45;100.00
7662;BME280;30314;48.184;11.510;2022-07-22T00:26:23;96233.06;;;17.07;100.00
7662;BME280;30314;48.184;11.510;2022-07-22T00:28:52;96273.28;;;17.41;100.00
7662;BME280;30314;48.184;11.510;2022-07-22T00:31:20;96247.94;;;17.17;100.00
7662;BME280;30314;48.184;11.510;2022-07-22T00:33:48;96300.41;;;17.52;100.00
7662;BME280;30314;48.184;11.510;2022-07-22T00:36:16;96277.88;;;17.31;100.00
7662;BME280;30314;48.184;11.510;2022-07-22T00:38:45;96214.31;;;16.86;100.00
7662;BME280;30314;48.184;11.510;2022-07-22T00:41:12;96242.66;;;17.08;100.00
7662;BME280;30314;48.184;11.510;2022-07-22T00:43:53;96292.81;;;17.32;100.00
7662;BME280;30314;48.184;11.510;2022-07-22T00:46:22;96269.16;;;17.13;100.00
7662;BME280;30314;48.184;11.510;2022-07-22T00:48:52;96259.78;;;17.07;100.00
7662;BME280;30314;48.184;11.510;2022-07-22T00:51:21;96288.81;;;17.09;100.00
7662;BME280;30314;48.184;11.510;2022-07-22T00:53:51;96295.88;;;17.13;100.00
7662;BME280;30314;48.184;11.510;2022-07-22T00:56:20;96290.69;;;17.17;100.00
7662;BME280;30314;48.184;11.510;2022-07-22T00:59:15;96305.91;;;17.16;100.00
7662;BME280;30314;48.184;11.510;2022-07-22T01:01:43;96283.22;;;17.01;100.00
7662;BME280;30314;48.184;11.510;2022-07-22T01:04:13;96276.31;;;17.00;100.00
7662;BME280;30314;48.184;11.510;2022-07-22T01:06:41;96291.50;;;17.09;100.00
7662;BME280;30314;48.184;11.510;2022-07-22T01:09:12;96287.91;;;17.04;100.00
7662;BME280;30314;48.184;11.510;2022-07-22T01:11:40;96284.00;;;17.02;100.00
7662;BME280;30314;48.184;11.510;2022-07-22T01:14:08;96225.28;;;16.54;100.00
7662;BME280;30314;48.184;11.510;2022-07-22T01:16:38;96276.22;;;16.79;100.00
7662;BME280;30314;48.184;11.510;2022-07-22T01:19:09;96260.97;;;16.80;100.00
7662;BME280;30314;48.184;11.510;2022-07-22T01:21:39;96235.78;;;16.51;100.00
7662;BME280;30314;48.184;11.510;2022-07-22T01:24:07;96288.44;;;16.89;100.00
7662;BME280;30314;48.184;11.510;2022-07-22T01:26:35;96245.78;;;16.62;100.00
7662;BME280;30314;48.184;11.510;2022-07-22T01:29:04;96270.88;;;16.70;100.00
7662;BME280;30314;48.184;11.510;2022-07-22T01:31:32;96245.38;;;16.52;100.00
7662;BME280;30314;48.184;11.510;2022-07-22T01:34:00;96274.84;;;16.64;100.00
7662;BME280;30314;48.184;11.510;2022-07-22T01:36:31;96273.28;;;16.63;100.00
7662;BME280;30314;48.184;11.510;2022-07-22T01:39:01;96293.84;;;16.62;100.00
7662;BME280;30314;48.184;11.510;2022-07-22T01:41:29;96282.84;;;16.64;100.00
7662;BME280;30314;48.184;11.510;2022-07-22T01:43:57;96245.09;;;16.35;100.00
7662;BME280;30314;48.184;11.510;2022-07-22T01:46:25;96287.41;;;16.55;100.00
7662;BME280;30314;48.184;11.510;2022-07-22T01:48:53;96247.31;;;16.25;100.00
7662;BME280;30314;48.184;11.510;2022-07-22T01:51:22;96265.47;;;16.40;100.00
7662;BME280;30314;48.184;11.510;2022-07-22T01:53:50;96271.00;;;16.35;100.00
7662;BME280;30314;48.184;11.510;2022-07-22T01:56:19;96282.59;;;16.39;100.00
7662;BME280;30314;48.184;11.510;2022-07-22T01:58:49;96270.50;;;16.42;100.00
7662;BME280;30314;48.184;11.510;2022-07-22T02:01:22;96281.81;;;16.39;100.00
7662;BME280;30314;48.184;11.510;2022-07-22T02:03:52;96278.06;;;16.31;100.00
7662;BME280;30314;48.184;11.510;2022-07-22T02:06:20;96193.25;;;15.80;100.00
7662;BME280;30314;48.184;11.510;2022-07-22T02:08:49;96265.69;;;16.26;100.00
7662;BME280;30314;48.184;11.510;2022-07-22T02:11:31;96269.13;;;16.18;100.00
7662;BME280;30314;48.184;11.510;2022-07-22T02:13:59;96266.28;;;16.23;100.00
7662;BME280;30314;48.184;11.510;2022-07-22T02:16:29;96240.59;;;16.10;100.00
7662;BME280;30314;48.184;11.510;2022-07-22T02:18:57;96252.34;;;16.17;100.00
7662;BME280;30314;48.184;11.510;2022-07-22T02:21:26;96221.00;;;15.97;100.00
7662;BME280;30314;48.184;11.510;2022-07-22T14:24:17;95933.31;;;28.85;45.25
7662;BME280;30314;48.184;11.510;2022-07-22T14:26:44;95941.97;;;28.73;46.34
7662;BME280;30314;48.184;11.510;2022-07-22T14:29:12;95918.69;;;28.72;45.29
7662;BME280;30314;48.184;11.510;2022-07-22T14:31:40;95911.84;;;28.60;45.99
7662;BME280;30314;48.184;11.510;2022-07-22T14:34:07;95933.06;;;28.72;45.55
7662;BME280;30314;48.184;11.510;2022-07-22T14:36:37;95926.75;;;28.82;44.85
7662;BME280;30314;48.184;11.510;2022-07-22T14:39:05;95934.28;;;28.98;43.87
7662;BME280;30314;48.184;11.510;2022-07-22T14:41:34;95928.72;;;29.09;42.62
7662;BME280;30314;48.184;11.510;2022-07-22T14:44:02;95883.75;;;28.70;43.35
7662;BME280;30314;48.184;11.510;2022-07-22T14:46:30;95925.56;;;28.83;45.14
7662;BME280;30314;48.184;11.510;2022-07-22T14:48:58;95918.84;;;28.92;45.24
7662;BME280;30314;48.184;11.510;2022-07-22T14:51:26;95914.38;;;29.05;43.46
7662;BME280;30314;48.184;11.510;2022-07-22T14:53:54;95920.69;;;28.98;44.47
7662;BME280;30314;48.184;11.510;2022-07-22T14:56:22;95920.28;;;29.00;43.66
7662;BME280;30314;48.184;11.510;2022-07-22T14:58:51;95926.59;;;28.93;44.12
7662;BME280;30314;48.184;11.510;2022-07-22T15:01:19;95890.31;;;28.73;43.83
7662;BME280;30314;48.184;11.510;2022-07-22T15:03:53;95915.81;;;29.14;43.91
7662;BME280;30314;48.184;11.510;2022-07-22T15:06:21;95907.34;;;29.08;43.43
7662;BME280;30314;48.184;11.510;2022-07-22T15:08:49;95923.72;;;29.32;43.15
7662;BME280;30314;48.184;11.510;2022-07-22T15:11:17;95922.34;;;29.20;43.85
7662;BME280;30314;48.184;11.510;2022-07-22T15:13:44;95923.63;;;29.11;43.54
7662;BME280;30314;48.184;11.510;2022-07-22T15:16:14;95908.22;;;29.01;43.49
7662;BME280;30314;48.184;11.510;2022-07-22T15:18:41;95920.91;;;29.11;44.08
7662;BME280;30314;48.184;11.510;2022-07-22T15:21:09;95920.59;;;29.06;44.47
7662;BME280;30314;48.184;11.510;2022-07-22T15:23:37;95880.13;;;28.80;44.40
7662;BME280;30314;48.184;11.510;2022-07-22T15:26:05;95913.03;;;29.17;44.46
7662;BME280;30314;48.184;11.510;2022-07-22T15:28:32;95881.78;;;29.02;43.13
7662;BME280;30314;48.184;11.510;2022-07-22T15:31:01;95883.38;;;28.99;44.14
7662;BME280;30314;48.184;11.510;2022-07-22T15:33:31;95881.72;;;29.05;44.16
7662;BME280;30314;48.184;11.510;2022-07-22T15:36:05;95888.81;;;28.99;43.93
7662;BME280;30314;48.184;11.510;2022-07-22T15:38:35;95896.81;;;29.10;44.97
7662;BME280;30314;48.184;11.510;2022-07-22T15:41:04;95889.81;;;29.36;42.16
7662;BME280;30314;48.184;11.510;2022-07-22T15:43:31;95892.19;;;29.34;42.20
7662;BME280;30314;48.184;11.510;2022-07-22T15:46:00;95880.16;;;29.32;41.67
7662;BME280;30314;48.184;11.510;2022-07-22T15:48:28;95876.44;;;29.22;43.73
7662;BME280;30314;48.184;11.510;2022-07-22T15:50:57;95872.94;;;29.21;43.96
7662;BME280;30314;48.184;11.510;2022-07-22T15:53:29;95874.75;;;29.28;43.23
7662;BME280;30314;48.184;11.510;2022-07-22T15:55:56;95875.25;;;29.23;44.68
7662;BME280;30314;48.184;11.510;2022-07-22T15:58:24;95880.72;;;29.47;42.80
7662;BME280;30314;48.184;11.510;2022-07-22T16:01:29;95878.19;;;29.32;43.91
7662;BME280;30314;48.184;11.510;2022-07-22T16:03:57;95865.91;;;29.24;44.34
7662;BME280;30314;48.184;11.510;2022-07-22T16:06:26;95851.34;;;29.10;43.87
7662;BME280;30314;48.184;11.510;2022-07-22T16:08:55;95880.09;;;29.35;44.10
7662;BME280;30314;48.184;11.510;2022-07-22T16:11:23;95864.88;;;29.38;44.19
7662;BME280;30314;48.184;11.510;2022-07-22T16:13:51;95854.16;;;29.27;44.62
7662;BME280;30314;48.184;11.510;2022-07-22T16:16:19;95844.41;;;29.06;44.07
7662;BME280;30314;48.184;11.510;2022-07-22T16:18:46;95811.94;;;28.95;43.82
7662;BME280;30314;48.184;11.510;2022-07-22T16:21:15;95848.13;;;29.16;44.65
7662;BME280;30314;48.184;11.510;2022-07-22T16:23:47;95851.03;;;29.29;44.64
7662;BME280;30314;48.184;11.510;2022-07-22T16:26:14;95844.16;;;29.20;46.08
7662;BME280;30314;48.184;11.510;2022-07-22T16:28:42;95838.13;;;29.09;45.53
7662;BME280;30314;48.184;11.510;2022-07-22T16:31:11;95842.09;;;29.28;44.11
7662;BME280;30314;48.184;11.510;2022-07-22T16:33:39;95833.97;;;29.24;44.29
7662;BME280;30314;48.184;11.510;2022-07-22T16:36:07;95849.13;;;29.25;45.15
7662;BME280;30314;48.184;11.510;2022-07-22T16:38:35;95841.75;;;29.26;46.29
7662;BME280;30314;48.184;11.510;2022-07-22T16:41:04;95836.41;;;29.19;46.32
7662;BME280;30314;48.184;11.510;2022-07-22T16:43:32;95799.59;;;28.87;46.51
7662;BME280;30314;48.184;11.510;2022-07-22T16:46:00;95832.59;;;29.16;46.15
7662;BME280;30314;48.184;11.510;2022-07-22T16:48:28;95769.16;;;28.68;46.40
7662;BME280;30314;48.184;11.510;2022-07-22T16:50:56;95801.63;;;28.82;47.11
7662;BME280;30314;48.184;11.510;2022-07-22T16:53:24;95827.28;;;29.05;46.18
7662;BME280;30314;48.184;11.510;2022-07-22T16:55:52;95828.38;;;29.11;46.79
7662;BME280;30314;48.184;11.510;2022-07-22T16:58:21;95822.34;;;29.00;47.34
7662;BME280;30314;48.184;11.510;2022-07-22T17:00:49;95817.72;;;28.97;47.16
7662;BME280;30314;48.184;11.510;2022-07-22T17:03:17;95824.41;;;28.92;47.79
7662;BME280;30314;48.184;11.510;2022-07-22T17:05:52;95816.97;;;28.93;47.17
7662;BME280;30314;48.184;11.510;2022-07-22T17:08:20;95803.38;;;28.93;47.14
7662;BME280;30314;48.184;11.510;2022-07-22T17:10:47;95812.72;;;28.92;47.39
7662;BME280;30314;48.184;11.510;2022-07-22T17:13:15;95825.16;;;28.93;47.72
7662;BME280;30314;48.184;11.510;2022-07-22T17:15:55;95817.41;;;28.91;47.32
7662;BME280;30314;48.184;11.510;2022-07-22T17:18:23;95814.03;;;28.83;46.93
7662;BME280;30314;48.184;11.510;2022-07-22T17:20:51;95821.38;;;28.87;47.59
7662;BME280;30314;48.184;11.510;2022-07-22T17:23:19;95830.38;;;28.80;47.00
7662;BME280;30314;48.184;11.510;2022-07-22T17:25:46;95839.44;;;28.69;47.59
7662;BME280;30314;48.184;11.510;2022-07-22T17:28:17;95833.34;;;28.62;47.60
7662;BME280;30314;48.184;11.510;2022-07-22T17:30:45;95831.09;;;28.56;47.44
7662;BME280;30314;48.184;11.510;2022-07-22T17:33:14;95836.66;;;28.46;47.65
7662;BME280;30314;48.184;11.510;2022-07-22T17:35:42;95815.25;;;28.20;48.64
7662;BME280;30314;48.184;11.510;2022-07-22T17:38:10;95849.78;;;28.54;47.94
7662;BME280;30314;48.184;11.510;2022-07-22T17:40:38;95840.38;;;28.59;47.07
7662;BME280;30314;48.184;11.510;2022-07-22T17:43:06;95790.03;;;28.16;48.18
7662;BME280;30314;48.184;11.510;2022-07-22T17:45:35;95828.56;;;28.42;47.49
7662;BME280;30314;48.184;11.510;2022-07-22T17:48:04;95831.34;;;28.38;47.52
7662;BME280;30314;48.184;11.510;2022-07-22T17:50:33;95838.44;;;28.28;48.11
7662;BME280;30314;48.184;11.510;2022-07-22T17:53:04;95834.59;;;28.26;48.56
7662;BME280;30314;48.184;11.510;2022-07-22T17:55:33;95821.16;;;28.11;48.84
7662;BME280;30314;48.184;11.510;2022-07-22T17:58:01;95791.34;;;28.04;49.17
7662;BME280;30314;48.184;11.510;2022-07-22T18:00:29;95801.00;;;28.09;48.56
7662;BME280;30314;48.184;11.510;2022-07-22T18:02:58;95777.53;;;27.91;48.37
7662;BME280;30314;48.184;11.510;2022-07-22T18:05:26;95795.34;;;27.96;49.16
7662;BME280;30314;48.184;11.510;2022-07-22T18:07:55;95798.38;;;28.02;48.59
7662;BME280;30314;48.184;11.510;2022-07-22T18:10:23;95799.63;;;27.93;49.30
7662;BME280;30314;48.184;11.510;2022-07-22T18:12:50;95801.53;;;27.96;48.90
7662;BME280;30314;48.184;11.510;2022-07-22T18:15:18;95810.50;;;27.93;48.88
7662;BME280;30314;48.184;11.510;2022-07-22T18:17:46;95814.38;;;27.92;49.12
7662;BME280;30314;48.184;11.510;2022-07-22T18:20:14;95819.09;;;27.88;49.01
7662;BME280;30314;48.184;11.510;2022-07-22T18:22:47;95820.16;;;27.98;48.60
7662;BME280;30314;48.184;11.510;2022-07-22T18:25:16;95812.44;;;27.93;48.74
7662;BME280;30314;48.184;11.510;2022-07-22T18:27:44;95807.06;;;27.89;49.06
7662;BME280;30314;48.184;11.510;2022-07-22T18:30:12;95807.44;;;27.88;48.91
7662;BME280;30314;48.184;11.510;2022-07-22T18:32:40;95801.03;;;27.70;49.47
7662;BME280;30314;48.184;11.510;2022-07-22T18:35:09;95813.41;;;27.75;49.45
7662;BME280;30314;48.184;11.510;2022-07-22T18:37:37;95816.50;;;27.74;49.73
7662;BME280;30314;48.184;11.510;2022-07-22T18:40:06;95817.38;;;27.67;50.42
7662;BME280;30314;48.184;11.510;2022-07-22T18:42:35;95809.00;;;27.47;50.26
7662;BME280;30314;48.184;11.510;2022-07-22T18:45:03;95821.75;;;27.53;50.61
7662;BME280;30314;48.184;11.510;2022-07-22T18:47:31;95836.53;;;27.49;50.64
7662;BME280;30314;48.184;11.510;2022-07-22T18:49:59;95840.44;;;27.48;51.07
7662;BME280;30314;48.184;11.510;2022-07-22T18:52:27;95851.97;;;27.59;49.94
7662;BME280;30314;48.184;11.510;2022-07-22T18:54:55;95855.78;;;27.69;49.35
7662;BME280;30314;48.184;11.510;2022-07-22T18:57:23;95855.06;;;27.61;49.27
7662;BME280;30314;48.184;11.510;2022-07-22T18:59:55;95851.69;;;27.46;49.87
7662;BME280;30314;48.184;11.510;2022-07-22T19:02:23;95864.88;;;27.44;50.15
7662;BME280;30314;48.184;11.510;2022-07-22T19:04:51;95847.19;;;27.28;50.14
7662;BME280;30314;48.184;11.510;2022-07-22T19:07:19;95861.47;;;27.33;50.75
7662;BME280;30314;48.184;11.510;2022-07-22T19:09:47;95875.44;;;27.31;50.88
7662;BME280;30314;48.184;11.510;2022-07-22T19:12:14;95875.06;;;27.29;51.56
7662;BME280;30314;48.184;11.510;2022-07-22T19:14:42;95879.78;;;27.25;51.27
7662;BME280;30314;48.184;11.510;2022-07-22T19:17:11;95847.44;;;26.96;51.93
7662;BME280;30314;48.184;11.510;2022-07-22T19:19:39;95879.13;;;27.06;51.99
7662;BME280;30314;48.184;11.510;2022-07-22T19:22:07;95888.41;;;27.05;52.11
7662;BME280;30314;48.184;11.510;2022-07-22T19:24:34;95896.22;;;26.99;52.28
7662;BME280;30314;48.184;11.510;2022-07-22T19:27:02;95903.25;;;26.90;52.94
7662;BME280;30314;48.184;11.510;2022-07-22T19:29:31;95889.34;;;26.77;53.29
7662;BME280;30314;48.184;11.510;2022-07-22T19:31:58;95914.09;;;26.90;54.16
7662;BME280;30314;48.184;11.510;2022-07-22T19:34:28;95919.53;;;26.82;54.40
7662;BME280;30314;48.184;11.510;2022-07-22T19:36:55;95925.38;;;26.73;54.70
7662;BME280;30314;48.184;11.510;2022-07-22T19:39:23;95932.78;;;26.66;56.05
7662;BME280;30314;48.184;11.510;2022-07-22T19:41:51;95924.69;;;26.58;56.39
7662;BME280;30314;48.184;11.510;2022-07-22T19:44:19;95925.91;;;26.43;57.30
7662;BME280;30314;48.184;11.510;2022-07-22T19:46:47;95931.72;;;26.38;57.57
7662;BME280;30314;48.184;11.510;2022-07-22T19:49:17;95924.00;;;26.29;57.90
7662;BME280;30314;48.184;11.510;2022-07-22T19:51:47;95920.16;;;26.12;58.72
7662;BME280;30314;48.184;11.510;2022-07-22T19:54:15;95925.19;;;26.10;60.21
7662;BME280;30314;48.184;11.510;2022-07-22T19:56:43;95927.94;;;25.99;60.52
7662;BME280;30314;48.184;11.510;2022-07-22T19:59:10;95931.03;;;26.04;58.39
7662;BME280;30314;48.184;11.510;2022-07-22T20:01:38;95921.34;;;25.96;58.71
7662;BME280;30314;48.184;11.510;2022-07-22T20:04:06;95929.84;;;26.09;59.00
7662;BME280;30314;48.184;11.510;2022-07-22T20:06:34;95940.31;;;25.96;61.10
7662;BME280;30314;48.184;11.510;2022-07-22T20:09:03;95942.22;;;26.03;61.10
7662;BME280;30314;48.184;11.510;2022-07-22T20:11:31;95908.25;;;25.77;60.50
7662;BME280;30314;48.184;11.510;2022-07-22T20:14:00;95941.09;;;25.89;61.87
7662;BME280;30314;48.184;11.510;2022-07-22T20:16:27;95917.91;;;25.70;62.83
7662;BME280;30314;48.184;11.510;2022-07-22T20:18:55;95934.91;;;25.78;62.29
7662;BME280;30314;48.184;11.510;2022-07-22T20:21:24;95902.44;;;25.49;62.73
7662;BME280;30314;48.184;11.510;2022-07-22T20:23:53;95933.78;;;25.57;64.10
7662;BME280;30314;48.184;11.510;2022-07-22T20:26:22;95926.03;;;25.56;63.78
7662;BME280;30314;48.184;11.510;2022-07-22T20:28:50;95881.56;;;25.17;64.20
7662;BME280;30314;48.184;11.510;2022-07-22T20:31:18;95898.16;;;25.04;64.96
7662;BME280;30314;48.184;11.510;2022-07-22T20:33:47;95932.97;;;25.31;65.69
7662;BME280;30314;48.184;11.510;2022-07-22T20:36:14;95902.03;;;25.03;67.58
7662;BME280;30314;48.184;11.510;2022-07-22T20:38:42;95883.41;;;24.80;68.75
7662;BME280;30314;48.184;11.510;2022-07-22T20:41:10;95929.81;;;25.04;69.24
7662;BME280;30314;48.184;11.510;2022-07-22T20:43:39;95911.63;;;24.94;70.20
7662;BME280;30314;48.184;11.510;2022-07-22T20:46:06;95917.44;;;24.88;70.66
7662;BME280;30314;48.184;11.510;2022-07-22T20:48:34;95925.94;;;24.83;71.07
7662;BME280;30314;48.184;11.510;2022-07-22T20:51:02;95939.03;;;24.77;71.64
7662;BME280;30314;48.184;11.510;2022-07-22T20:53:30;95935.91;;;24.72;72.16
7662;BME280;30314;48.184;11.510;2022-07-22T20:55:58;95943.22;;;24.71;71.21
7662;BME280;30314;48.184;11.510;2022-07-22T20:58:26;95938.97;;;24.70;71.52
7662;BME280;30314;48.184;11.510;2022-07-22T21:00:55;95924.25;;;24.49;72.32
7662;BME280;30314;48.184;11.510;2022-07-22T21:03:23;95940.44;;;24.53;72.05
7662;BME280;30314;48.184;11.510;2022-07-22T21:05:51;95937.75;;;24.57;71.83
7662;BME280;30314;48.184;11.510;2022-07-22T21:08:18;95907.56;;;24.37;71.50
7662;BME280;30314;48.184;11.510;2022-07-22T21:10:46;95932.75;;;24.62;72.90
7662;BME280;30314;48.184;11.510;2022-07-22T21:13:14;95940.84;;;24.59;73.92
7662;BME280;30314;48.184;11.510;2022-07-22T21:15:45;95935.06;;;24.57;73.86
7662;BME280;30314;48.184;11.510;2022-07-22T21:18:14;95935.03;;;24.49;72.93
7662;BME280;30314;48.184;11.510;2022-07-22T21:20:42;95932.84;;;24.77;68.36
7662;BME280;30314;48.184;11.510;2022-07-22T21:23:10;95935.94;;;24.79;69.27
7662;BME280;30314;48.184;11.510;2022-07-22T21:25:38;95946.78;;;24.86;70.41
7662;BME280;30314;48.184;11.510;2022-07-22T21:28:06;95954.50;;;24.81;70.30
7662;BME280;30314;48.184;11.510;2022-07-22T21:30:33;95959.06;;;24.73;70.28
7662;BME280;30314;48.184;11.510;2022-07-22T21:33:03;95966.00;;;24.63;69.39
7662;BME280;30314;48.184;11.510;2022-07-22T21:35:36;95962.88;;;24.57;69.52
7662;BME280;30314;48.184;11.510;2022-07-22T21:38:04;95965.91;;;24.52;69.08
7662;BME280;30314;48.184;11.510;2022-07-22T21:40:31;95969.75;;;24.44;69.20
7662;BME280;30314;48.184;11.510;2022-07-22T21:43:01;95975.13;;;24.40;68.62
7662;BME280;30314;48.184;11.510;2022-07-22T21:45:29;95971.25;;;24.38;67.84
7662;BME280;30314;48.184;11.510;2022-07-22T21:47:57;95977.78;;;24.33;68.51
7662;BME280;30314;48.184;11.510;2022-07-22T21:50:24;95982.09;;;24.45;67.77
7662;BME280;30314;48.184;11.510;2022-07-22T21:52:53;95988.28;;;24.49;68.79
7662;BME280;30314;48.184;11.510;2022-07-22T21:55:21;95987.56;;;24.56;66.38
7662;BME280;30314;48.184;11.510;2022-07-22T21:57:49;95984.09;;;24.55;68.16
7662;BME280;30314;48.184;11.510;2022-07-22T22:00:17;95976.34;;;24.54;67.25
7662;BME280;30314;48.184;11.510;2022-07-22T22:02:44;95979.44;;;24.52;68.18
7662;BME280;30314;48.184;11.510;2022-07-22T22:05:12;95989.06;;;24.46;68.77
7662;BME280;30314;48.184;11.510;2022-07-22T22:07:40;95988.28;;;24.45;69.36
7662;BME280;30314;48.184;11.510;2022-07-22T22:10:09;96003.69;;;24.41;70.15
7662;BME280;30314;48.184;11.510;2022-07-22T22:12:37;96008.31;;;24.37;69.97
7662;BME280;30314;48.184;11.510;2022-07-22T22:15:07;95990.44;;;24.18;70.89
7662;BME280;30314;48.184;11.510;2022-07-22T22:17:34;96003.22;;;24.25;71.46
7662;BME280;30314;48.184;11.510;2022-07-22T22:20:03;95999.41;;;24.37;70.54
7662;BME280;30314;48.184;11.510;2022-07-22T22:22:31;95997.50;;;24.37;70.82
7662;BME280;30314;48.184;11.510;2022-07-22T22:24:58;96005.97;;;24.35;71.34
7662;BME280;30314;48.184;11.510;2022-07-22T22:27:27;96003.63;;;24.27;72.50
7662;BME280;30314;48.184;11.510;2022-07-22T22:29:55;95995.53;;;24.30;72.93
7662;BME280;30314;48.184;11.510;2022-07-22T22:32:23;95972.38;;;24.29;74.43
7662;BME280;30314;48.184;11.510;2022-07-22T22:34:51;95963.06;;;24.23;76.10
7662;BME280;30314;48.184;11.510;2022-07-22T22:37:19;95957.09;;;23.99;79.02
7662;BME280;30314;48.184;11.510;2022-07-22T22:39:46;95977.56;;;24.00;83.59
7662;BME280;30314;48.184;11.510;2022-07-22T22:42:14;95967.81;;;23.85;83.97
7662;BME280;30314;48.184;11.510;2022-07-22T22:44:43;95967.78;;;23.77;79.42
7662;BME280;30314;48.184;11.510;2022-07-22T22:47:11;95929.75;;;23.48;78.52
7662;BME280;30314;48.184;11.510;2022-07-22T22:49:38;95972.34;;;23.73;79.14
7662;BME280;30314;48.184;11.510;2022-07-22T22:52:06;95977.72;;;23.70;78.55
7662;BME280;30314;48.184;11.510;2022-07-22T22:54:34;95983.13;;;23.73;79.12
7662;BME280;30314;48.184;11.510;2022-07-22T22:57:01;95983.97;;;23.77;77.43
7662;BME280;30314;48.184;11.510;2022-07-22T22:59:29;95995.63;;;23.89;76.89
7662;BME280;30314;48.184;11.510;2022-07-22T23:01:58;95985.50;;;23.78;75.33
7662;BME280;30314;48.184;11.510;2022-07-22T23:04:26;95998.31;;;23.89;76.20
7662;BME280;30314;48.184;11.510;2022-07-22T23:06:54;95990.56;;;23.84;75.99
7662;BME280;30314;48.184;11.510;2022-07-22T23:09:21;95989.34;;;23.77;73.99
7662;BME280;30314;48.184;11.510;2022-07-22T23:11:49;95982.78;;;23.75;73.00
7662;BME280;30314;48.184;11.510;2022-07-22T23:14:16;95980.88;;;23.79;70.78
7662;BME280;30314;48.184;11.510;2022-07-22T23:16:44;95985.94;;;23.88;70.64
7662;BME280;30314;48.184;11.510;2022-07-22T23:19:13;95984.16;;;24.03;69.40
7662;BME280;30314;48.184;11.510;2022-07-22T23:21:41;95970.94;;;23.90;69.32
7662;BME280;30314;48.184;11.510;2022-07-22T23:24:09;95978.69;;;23.99;68.24
7662;BME280;30314;48.184;11.510;2022-07-22T23:26:36;95973.78;;;24.09;67.70
7662;BME280;30314;48.184;11.510;2022-07-22T23:29:04;95984.59;;;24.09;68.00
7662;BME280;30314;48.184;11.510;2022-07-22T23:31:32;95991.81;;;23.97;68.24
7662;BME280;30314;48.184;11.510;2022-07-22T23:33:59;95980.69;;;24.02;67.67
7662;BME280;30314;48.184;11.510;2022-07-22T23:36:29;95980.63;;;23.95;68.51
7662;BME280;30314;48.184;11.510;2022-07-22T23:38:56;95967.41;;;23.83;68.79
7662;BME280;30314;48.184;11.510;2022-07-22T23:41:25;95972.06;;;23.86;69.31
7662;BME280;30314;48.184;11.510;2022-07-22T23:43:53;95975.59;;;23.97;69.15
7662;BME280;30314;48.184;11.510;2022-07-22T23:46:21;95971.38;;;23.96;69.30
7662;BME280;30314;48.184;11.510;2022-07-22T23:48:49;95966.66;;;23.86;69.59
7662;BME280;30314;48.184;11.510;2022-07-22T23:51:16;95963.53;;;23.76;70.30
7662;BME280;30314;48.184;11.510;2022-07-22T23:53:46;95966.16;;;23.69;70.72
7662;BME280;30314;48.184;11.510;2022-07-22T23:56:13;95955.28;;;23.58;71.10
7662;BME280;30314;48.184;11.510;2022-07-22T23:58:41;95959.56;;;23.63;71.67
